Time;durP1;ratioP1;P1;durP2;ratioP2;P2;SDS_P1;SDS_P2;PMS_P1;PMS_P2;Temp;Humidity;BMP_temperature;BMP_pressure;BME280_temperature;BME280_humidity;BME280_pressure;Samples;Min_cycle;Max_cycle;Signal;HPM_P1;HPM_P2
2022/10/01 00:00:53;;;;;;;4.07;3.10;;;12.70;99.90;;;;;;7390171;19;20146;-76
2022/10/01 00:03:21;;;;;;;4.07;3.17;;;12.70;99.90;;;;;;7389237;19;20146;-76
2022/10/01 00:05:56;;;;;;;4.87;3.07;;;12.40;99.90;;;;;;7389777;19;20504;-75
2022/10/01 00:08:22;;;;;;;4.10;2.53;;;12.40;99.90;;;;;;7390395;19;20150;-75
2022/10/01 00:10:48;;;;;;;4.77;2.60;;;12.00;99.90;;;;;;7390136;19;20521;-77
2022/10/01 00:13:13;;;;;;;3.80;2.90;;;11.80;99.90;;;;;;7388842;19;20131;-76
2022/10/01 00:15:41;;;;;;;3.13;2.70;;;11.70;99.90;;;;;;7390013;19;20150;-76
2022/10/01 00:18:09;;;;;;;3.03;2.70;;;11.40;99.90;;;;;;7386640;19;20644;-77
2022/10/01 00:20:39;;;;;;;4.70;2.97;;;11.30;99.90;;;;;;7388711;19;20226;-79
2022/10/01 00:23:04;;;;;;;4.90;2.65;;;11.50;99.90;;;;;;7390126;19;20905;-77
2022/10/01 00:25:33;;;;;;;3.37;2.77;;;11.60;99.90;;;;;;7388586;19;20170;-76
2022/10/01 00:27:59;;;;;;;4.27;2.93;;;11.70;99.90;;;;;;7388197;19;20623;-76
2022/10/01 00:30:25;;;;;;;4.43;2.73;;;11.80;99.90;;;;;;7390209;19;20146;-77
2022/10/01 00:32:53;;;;;;;3.90;3.17;;;11.90;99.90;;;;;;7390286;19;20146;-76
2022/10/01 00:35:21;;;;;;;3.13;2.63;;;11.50;99.90;;;;;;7389327;19;20143;-76
2022/10/01 00:37:49;;;;;;;3.10;2.80;;;11.70;99.90;;;;;;7389042;19;20170;-76
2022/10/01 00:40:18;;;;;;;3.47;2.43;;;11.80;99.90;;;;;;7390918;19;20146;-76
2022/10/01 00:42:44;;;;;;;3.83;2.83;;;12.00;99.90;;;;;;7391745;19;20146;-75
2022/10/01 00:45:14;;;;;;;4.93;2.63;;;12.20;99.90;;;;;;7389411;19;20213;-76
2022/10/01 00:47:54;;;;;;;3.40;2.63;;;12.40;99.90;;;;;;7389286;19;20472;-76
2022/10/01 00:50:29;;;;;;;3.33;2.93;;;12.50;99.90;;;;;;7389072;19;20143;-76
2022/10/01 00:52:58;;;;;;;3.03;2.50;;;12.50;99.90;;;;;;7391005;19;20228;-77
2022/10/01 00:55:35;;;;;;;2.47;2.23;;;12.50;99.90;;;;;;7392008;19;20150;-76
2022/10/01 00:58:02;;;;;;;3.93;2.83;;;12.30;99.90;;;;;;7393951;19;20134;-77
2022/10/01 01:00:29;;;;;;;3.63;2.83;;;12.30;99.90;;;;;;7399332;19;20190;-77
2022/10/01 01:02:55;;;;;;;7.77;2.70;;;12.40;99.90;;;;;;7395303;19;20517;-77
2022/10/01 01:05:21;;;;;;;2.83;2.53;;;12.50;99.90;;;;;;7397779;19;20142;-77
2022/10/01 01:07:50;;;;;;;3.63;2.70;;;12.50;99.90;;;;;;7396988;19;20131;-77
2022/10/01 01:10:20;;;;;;;4.57;2.50;;;12.60;99.90;;;;;;7397365;19;20146;-76
2022/10/01 01:12:58;;;;;;;2.70;2.40;;;12.50;99.90;;;;;;7395290;19;20583;-77
2022/10/01 01:15:43;;;;;;;6.43;3.00;;;12.60;99.90;;;;;;7396897;19;20141;-77
2022/10/01 01:18:18;;;;;;;3.40;2.73;;;12.50;99.90;;;;;;7394591;19;20143;-77
2022/10/01 01:20:58;;;;;;;6.23;2.73;;;12.40;99.90;;;;;;7396369;19;20138;-77
2022/10/01 01:23:43;;;;;;;4.37;2.50;;;12.40;99.90;;;;;;7393175;19;20181;-77
2022/10/01 01:26:31;;;;;;;4.40;2.30;;;12.40;99.90;;;;;;7388274;19;20180;-76
2022/10/01 01:29:05;;;;;;;3.87;2.93;;;12.30;99.90;;;;;;7397529;19;20225;-76
2022/10/01 01:31:38;;;;;;;2.60;2.40;;;12.20;99.90;;;;;;7396315;19;20157;-77
2022/10/01 01:34:12;;;;;;;6.27;2.30;;;12.40;99.90;;;;;;7395679;19;20573;-76
2022/10/01 01:36:43;;;;;;;2.83;2.50;;;12.40;99.90;;;;;;7395259;19;20155;-76
2022/10/01 01:39:13;;;;;;;3.03;2.17;;;12.40;99.90;;;;;;7395014;19;20855;-77
2022/10/01 01:41:48;;;;;;;2.97;2.50;;;12.30;99.90;;;;;;7394975;19;20138;-78
2022/10/01 01:44:16;;;;;;;4.57;2.73;;;12.40;99.90;;;;;;7397516;19;20146;-76
2022/10/01 01:46:47;;;;;;;3.50;2.63;;;12.40;99.90;;;;;;7397000;19;20150;-76
2022/10/01 01:49:16;;;;;;;3.50;2.50;;;12.40;99.90;;;;;;7393664;19;20131;-77
2022/10/01 01:51:58;;;;;;;5.53;3.03;;;12.40;99.90;;;;;;7393722;19;20150;-76
2022/10/01 01:54:24;;;;;;;2.83;2.40;;;12.30;99.90;;;;;;7394791;19;20237;-76
2022/10/01 01:56:51;;;;;;;3.17;2.40;;;12.40;99.90;;;;;;7394776;19;20142;-77
2022/10/01 01:59:18;;;;;;;3.28;2.22;;;12.50;99.90;;;;;;7393583;19;20134;-76
2022/10/01 02:01:44;;;;;;;3.87;2.30;;;12.40;99.90;;;;;;7392258;19;20147;-77
2022/10/01 02:04:24;;;;;;;2.43;2.23;;;12.30;99.90;;;;;;7393996;19;20202;-76
2022/10/01 02:07:19;;;;;;;3.20;2.13;;;12.30;99.90;;;;;;7393879;19;20206;-76
2022/10/01 02:10:04;;;;;;;4.17;2.83;;;12.30;99.90;;;;;;7396135;19;20592;-77
2022/10/01 02:12:38;;;;;;;3.33;2.40;;;12.30;99.90;;;;;;7394427;19;20141;-77
2022/10/01 02:15:27;;;;;;;2.70;2.23;;;12.40;99.90;;;;;;7397218;19;20148;-77
2022/10/01 02:18:17;;;;;;;5.83;2.50;;;12.50;99.90;;;;;;7393829;19;20607;-81
2022/10/01 02:20:52;;;;;;;2.67;1.90;;;12.50;99.90;;;;;;7395743;19;20134;-76
2022/10/01 02:23:27;;;;;;;3.93;2.00;;;12.60;99.90;;;;;;7392614;19;20158;-76
2022/10/01 02:25:58;;;;;;;3.03;2.13;;;12.50;99.90;;;;;;7392398;19;20411;-76
2022/10/01 02:28:24;;;;;;;2.30;2.00;;;12.40;99.90;;;;;;7387012;19;20154;-77
2022/10/01 02:30:55;;;;;;;2.53;2.00;;;12.30;99.90;;;;;;7394308;19;20222;-76
2022/10/01 02:33:26;;;;;;;3.93;2.10;;;12.30;99.90;;;;;;7395380;19;20221;-76
2022/10/01 02:35:52;;;;;;;2.70;2.17;;;12.30;99.90;;;;;;7393829;19;20155;-76
2022/10/01 02:38:21;;;;;;;6.07;1.90;;;12.50;99.90;;;;;;7392360;19;20154;-76
2022/10/01 02:40:52;;;;;;;3.10;1.93;;;12.60;99.90;;;;;;7392876;19;20188;-76
2022/10/01 02:43:30;;;;;;;2.20;1.80;;;12.70;99.90;;;;;;7393641;19;20162;-76
2022/10/01 02:46:04;;;;;;;4.47;2.20;;;12.60;99.90;;;;;;7394325;19;20153;-77
2022/10/01 02:48:29;;;;;;;2.53;2.10;;;12.60;99.90;;;;;;7390640;19;20158;-76
2022/10/01 02:51:16;;;;;;;3.03;2.30;;;12.70;99.90;;;;;;7392542;19;20142;-77
2022/10/01 02:53:46;;;;;;;3.27;1.90;;;12.60;99.90;;;;;;7393643;19;20598;-76
2022/10/01 02:57:21;;;;;;;2.73;2.03;;;12.50;99.90;;;;;;7394172;19;20135;-77
2022/10/01 02:58:58;;;;;;;4.43;2.13;;;12.50;99.90;;;;;;7388913;19;20615;-76
2022/10/01 03:01:24;;;;;;;2.77;2.17;;;12.40;99.90;;;;;;7394573;19;20143;-77
2022/10/01 03:03:50;;;;;;;2.87;1.93;;;12.50;99.90;;;;;;7392303;19;20145;-76
2022/10/01 03:06:16;;;;;;;3.33;2.07;;;12.60;99.90;;;;;;7393893;19;21165;-77
2022/10/01 03:08:41;;;;;;;2.37;1.90;;;12.60;99.90;;;;;;7391915;19;20139;-77
2022/10/01 03:11:08;;;;;;;2.23;2.03;;;12.60;99.90;;;;;;7391666;19;20143;-76
2022/10/01 03:13:33;;;;;;;4.20;1.92;;;12.60;99.90;;;;;;7392721;19;20176;-78
2022/10/01 03:15:59;;;;;;;3.53;2.10;;;12.40;99.90;;;;;;7389875;19;20624;-75
2022/10/01 03:18:25;;;;;;;2.47;1.80;;;12.60;99.90;;;;;;7388549;19;20135;-75
2022/10/01 03:20:51;;;;;;;2.78;1.77;;;12.60;99.90;;;;;;7393911;19;20122;-76
2022/10/01 03:23:16;;;;;;;2.95;1.90;;;12.50;99.90;;;;;;7389406;19;20639;-77
2022/10/01 03:25:42;;;;;;;4.07;2.17;;;12.40;99.90;;;;;;7393110;19;20160;-77
2022/10/01 03:28:08;;;;;;;2.50;1.70;;;12.50;99.90;;;;;;7391792;19;20587;-77
2022/10/01 03:30:33;;;;;;;2.10;1.70;;;12.40;99.90;;;;;;7392868;19;20169;-77
2022/10/01 03:32:59;;;;;;;3.43;1.70;;;12.40;99.90;;;;;;7393796;19;20138;-76
2022/10/01 03:35:25;;;;;;;5.30;2.00;;;12.40;99.90;;;;;;7389021;19;20141;-77
2022/10/01 03:37:51;;;;;;;2.73;1.77;;;12.50;99.90;;;;;;7389719;19;20499;-77
2022/10/01 03:40:17;;;;;;;2.00;1.80;;;12.40;99.90;;;;;;7392211;19;20134;-77
2022/10/01 03:42:43;;;;;;;3.17;1.70;;;12.60;99.90;;;;;;7394819;19;20131;-77
2022/10/01 03:45:09;;;;;;;3.73;1.53;;;12.40;99.90;;;;;;7390326;19;20139;-78
2022/10/01 03:47:34;;;;;;;2.07;1.70;;;12.50;99.90;;;;;;7390180;19;20485;-76
2022/10/01 03:50:00;;;;;;;2.70;1.70;;;12.40;99.90;;;;;;7390288;19;20737;-76
2022/10/01 03:52:26;;;;;;;1.87;1.60;;;12.30;99.90;;;;;;7393783;19;20146;-77
2022/10/01 03:54:52;;;;;;;2.07;1.70;;;12.30;99.90;;;;;;7390380;19;20145;-75
2022/10/01 03:57:17;;;;;;;2.27;1.50;;;12.10;99.90;;;;;;7390507;19;20142;-76
2022/10/01 03:59:43;;;;;;;1.60;1.50;;;12.10;99.90;;;;;;7389549;19;20167;-76
2022/10/01 04:02:09;;;;;;;1.40;1.30;;;12.20;99.90;;;;;;7389888;19;20225;-76
2022/10/01 04:04:35;;;;;;;2.00;1.50;;;12.20;99.90;;;;;;7390107;19;20142;-76
2022/10/01 04:07:00;;;;;;;1.83;1.50;;;12.30;99.90;;;;;;7392347;19;20238;-76
2022/10/01 04:09:26;;;;;;;2.37;1.53;;;12.40;99.90;;;;;;7390644;19;20142;-76
2022/10/01 04:11:52;;;;;;;1.93;1.80;;;12.50;99.90;;;;;;7390870;19;20495;-76
2022/10/01 04:14:18;;;;;;;2.37;1.60;;;12.60;99.90;;;;;;7392129;19;20134;-76
2022/10/01 04:16:44;;;;;;;2.30;1.60;;;12.50;99.90;;;;;;7388368;19;20150;-76
2022/10/01 04:19:09;;;;;;;1.77;1.50;;;12.50;99.90;;;;;;7389917;19;20202;-76
2022/10/01 04:21:35;;;;;;;2.00;1.80;;;12.60;99.90;;;;;;7391769;19;20142;-75
2022/10/01 04:24:03;;;;;;;1.83;1.40;;;12.70;99.90;;;;;;7392399;19;20139;-76
2022/10/01 04:26:29;;;;;;;1.90;1.60;;;12.40;99.90;;;;;;7388564;19;20234;-77
2022/10/01 04:28:55;;;;;;;1.80;1.40;;;12.10;99.90;;;;;;7390954;19;20163;-76
2022/10/01 04:31:23;;;;;;;1.60;1.40;;;12.30;99.90;;;;;;7389258;19;20521;-77
2022/10/01 04:33:50;;;;;;;1.53;1.43;;;12.40;99.90;;;;;;7390040;19;20155;-77
2022/10/01 04:36:16;;;;;;;2.10;1.53;;;12.30;99.90;;;;;;7388857;19;20158;-76
2022/10/01 04:38:42;;;;;;;1.63;1.33;;;12.60;99.90;;;;;;7387841;19;20143;-76
2022/10/01 04:41:08;;;;;;;1.73;1.30;;;12.40;99.90;;;;;;7388509;19;20817;-75
2022/10/01 04:43:34;;;;;;;2.42;1.08;;;12.40;99.90;;;;;;7389426;19;20146;-76
2022/10/01 04:46:00;;;;;;;2.60;1.50;;;12.50;99.90;;;;;;7390275;19;20138;-75
2022/10/01 04:48:26;;;;;;;1.30;1.00;;;12.50;99.90;;;;;;7389359;19;20149;-75
2022/10/01 04:50:52;;;;;;;1.33;1.10;;;12.50;99.90;;;;;;7387182;19;20135;-76
2022/10/01 04:53:17;;;;;;;1.03;0.93;;;12.60;99.90;;;;;;7389769;19;20135;-76
2022/10/01 04:55:45;;;;;;;2.03;1.27;;;12.60;99.90;;;;;;7390446;19;20164;-76
2022/10/01 04:58:10;;;;;;;1.73;1.33;;;12.70;99.90;;;;;;7387147;19;20134;-75
2022/10/01 05:00:36;;;;;;;3.67;1.23;;;12.60;99.90;;;;;;7385116;19;20266;-76
2022/10/01 05:03:02;;;;;;;3.40;1.10;;;12.70;99.90;;;;;;7390206;19;20176;-76
2022/10/01 05:05:28;;;;;;;2.07;1.20;;;12.60;99.90;;;;;;7391626;19;20159;-76
2022/10/01 05:07:54;;;;;;;3.07;1.10;;;12.60;99.90;;;;;;7386975;19;20139;-78
2022/10/01 05:10:21;;;;;;;1.10;1.00;;;12.60;99.90;;;;;;7387243;19;20489;-76
2022/10/01 05:12:48;;;;;;;3.17;1.40;;;12.50;99.90;;;;;;7389020;19;20612;-76
2022/10/01 05:15:15;;;;;;;1.67;1.17;;;12.60;99.90;;;;;;7386222;19;20142;-77
2022/10/01 05:17:41;;;;;;;1.23;1.13;;;12.60;99.90;;;;;;7387544;19;20151;-76
2022/10/01 05:20:14;;;;;;;1.50;1.20;;;12.60;99.90;;;;;;7390521;19;20143;-75
2022/10/01 05:22:40;;;;;;;2.90;1.20;;;12.60;99.90;;;;;;7389190;19;20152;-75
2022/10/01 05:25:06;;;;;;;1.27;1.17;;;12.70;99.90;;;;;;7389443;19;20194;-78
2022/10/01 05:27:36;;;;;;;2.58;1.10;;;12.70;99.90;;;;;;7384984;19;20142;-76
2022/10/01 05:30:04;;;;;;;1.20;1.10;;;12.50;99.90;;;;;;7387997;19;20255;-76
2022/10/01 05:32:30;;;;;;;1.93;1.07;;;12.50;99.90;;;;;;7391893;19;20139;-76
2022/10/01 05:34:56;;;;;;;1.60;1.10;;;12.60;99.90;;;;;;7387825;19;20159;-77
2022/10/01 05:37:23;;;;;;;3.77;0.90;;;12.60;99.90;;;;;;7386584;19;20158;-75
2022/10/01 05:39:48;;;;;;;1.03;0.90;;;12.60;99.90;;;;;;7387121;19;20146;-76
2022/10/01 05:42:14;;;;;;;0.80;0.80;;;12.60;99.90;;;;;;7394091;19;20130;-77
2022/10/01 05:44:44;;;;;;;2.37;1.30;;;12.70;99.90;;;;;;7396561;19;20131;-77
2022/10/01 05:47:12;;;;;;;3.33;1.20;;;12.80;99.90;;;;;;7394655;19;20152;-76
2022/10/01 05:49:41;;;;;;;5.23;3.20;;;12.80;99.90;;;;;;7394577;19;20740;-75
2022/10/01 05:52:09;;;;;;;1.88;1.40;;;12.70;99.90;;;;;;7394513;19;20206;-76
2022/10/01 05:54:36;;;;;;;1.23;1.00;;;12.60;99.90;;;;;;7394207;19;20230;-75
2022/10/01 05:57:02;;;;;;;1.37;1.10;;;12.50;99.90;;;;;;7393411;19;20158;-76
2022/10/01 05:59:27;;;;;;;1.20;0.83;;;12.60;99.90;;;;;;7392558;19;20154;-75
2022/10/01 06:01:53;;;;;;;1.10;0.93;;;12.40;99.90;;;;;;7395095;19;20138;-75
2022/10/01 06:04:19;;;;;;;1.00;0.80;;;12.50;99.90;;;;;;7390339;19;20151;-76
2022/10/01 06:06:45;;;;;;;2.40;0.82;;;12.80;99.90;;;;;;7395298;19;20138;-75
2022/10/01 06:09:12;;;;;;;0.73;0.70;;;12.50;99.90;;;;;;7394253;19;20635;-76
2022/10/01 06:11:38;;;;;;;1.07;0.90;;;12.50;99.90;;;;;;7394333;19;20142;-76
2022/10/01 06:14:04;;;;;;;1.47;0.90;;;12.50;99.90;;;;;;7394849;19;20157;-75
2022/10/01 06:16:30;;;;;;;0.90;0.90;;;12.50;99.90;;;;;;7392230;19;20159;-78
2022/10/01 06:18:56;;;;;;;1.90;0.93;;;12.60;99.90;;;;;;7394363;19;20138;-77
2022/10/01 06:21:23;;;;;;;0.82;0.80;;;12.70;99.90;;;;;;7393598;19;20161;-77
2022/10/01 06:23:49;;;;;;;0.97;0.70;;;12.40;99.90;;;;;;7396425;19;20651;-76
2022/10/01 06:26:16;;;;;;;2.37;0.63;;;12.50;99.90;;;;;;7390614;19;20503;-77
2022/10/01 06:28:41;;;;;;;1.20;1.10;;;12.60;99.90;;;;;;7395210;19;20134;-76
2022/10/01 06:31:07;;;;;;;1.23;0.90;;;12.70;99.90;;;;;;7392436;19;20145;-77
2022/10/01 06:33:34;;;;;;;4.50;1.10;;;13.20;99.90;;;;;;7393225;19;20146;-77
2022/10/01 06:36:00;;;;;;;1.77;0.93;;;12.90;99.90;;;;;;7392590;19;20206;-78
2022/10/01 06:38:25;;;;;;;1.37;1.10;;;12.90;99.90;;;;;;7389680;19;20230;-77
2022/10/01 06:40:53;;;;;;;1.50;1.20;;;12.80;99.90;;;;;;7393997;19;20134;-76
2022/10/01 06:43:19;;;;;;;1.53;1.10;;;12.80;99.90;;;;;;7394127;19;20138;-76
2022/10/01 06:45:44;;;;;;;1.30;1.00;;;12.80;99.90;;;;;;7391896;19;20222;-76
2022/10/01 06:48:15;;;;;;;3.43;1.70;;;12.40;99.90;;;;;;7391357;19;20134;-76
2022/10/01 06:50:42;;;;;;;1.30;1.20;;;12.40;99.90;;;;;;7390200;19;20171;-77
2022/10/01 06:53:08;;;;;;;1.87;1.10;;;12.50;99.90;;;;;;7392377;19;20141;-77
2022/10/01 06:55:35;;;;;;;1.20;1.00;;;12.60;99.90;;;;;;7389693;19;20134;-77
2022/10/01 06:58:06;;;;;;;2.10;1.40;;;12.60;99.90;;;;;;7387750;19;20135;-77
2022/10/01 07:00:34;;;;;;;2.37;1.40;;;12.70;99.90;;;;;;7389806;19;20144;-76
2022/10/01 07:03:03;;;;;;;2.63;1.20;;;12.70;99.90;;;;;;7390677;19;20158;-76
2022/10/01 07:05:29;;;;;;;2.20;1.20;;;12.90;99.90;;;;;;7391317;19;20138;-77
2022/10/01 07:07:55;;;;;;;4.00;1.33;;;12.60;99.90;;;;;;7392241;19;20139;-78
2022/10/01 07:10:22;;;;;;;1.93;1.20;;;12.70;99.90;;;;;;7393996;19;20530;-77
2022/10/01 07:12:48;;;;;;;2.10;1.43;;;12.60;99.90;;;;;;7392052;19;20150;-75
2022/10/01 07:15:16;;;;;;;1.70;1.03;;;12.40;99.90;;;;;;7392933;19;20629;-76
2022/10/01 07:17:44;;;;;;;2.40;1.20;;;12.60;99.90;;;;;;7392886;19;20142;-76
2022/10/01 07:20:10;;;;;;;1.03;0.93;;;12.30;99.90;;;;;;7392374;19;20157;-76
2022/10/01 07:22:37;;;;;;;1.20;1.10;;;12.30;99.90;;;;;;7393770;19;20135;-76
2022/10/01 07:25:04;;;;;;;2.57;1.33;;;12.40;99.90;;;;;;7389190;19;20178;-77
2022/10/01 07:27:29;;;;;;;2.17;1.53;;;12.50;99.90;;;;;;7391972;19;20150;-77
2022/10/01 07:29:57;;;;;;;2.37;1.30;;;12.50;99.90;;;;;;7389238;19;20135;-78
2022/10/01 07:32:24;;;;;;;3.17;1.67;;;12.40;99.90;;;;;;7383757;19;20197;-77
2022/10/01 07:34:50;;;;;;;1.80;1.70;;;12.40;99.90;;;;;;7386658;19;20141;-77
2022/10/01 07:37:15;;;;;;;3.40;2.00;;;12.70;99.90;;;;;;7389209;19;20453;-78
2022/10/01 07:39:41;;;;;;;4.37;1.97;;;12.70;99.90;;;;;;7388650;19;20127;-78
2022/10/01 07:42:07;;;;;;;2.47;1.97;;;12.70;99.90;;;;;;7390488;19;20127;-78
2022/10/01 07:44:33;;;;;;;6.17;3.87;;;12.70;99.90;;;;;;7389992;19;20130;-78
2022/10/01 07:46:59;;;;;;;2.37;1.87;;;12.70;99.90;;;;;;7385939;19;20561;-78
2022/10/01 07:49:25;;;;;;;4.30;1.73;;;12.70;99.90;;;;;;7389483;19;20130;-78
2022/10/01 07:51:53;;;;;;;4.23;1.50;;;12.60;99.90;;;;;;7387106;19;20123;-78
2022/10/01 07:54:20;;;;;;;5.33;1.50;;;12.70;99.90;;;;;;7392336;19;20484;-78
2022/10/01 07:56:48;;;;;;;4.80;1.20;;;12.80;99.90;;;;;;7391215;19;20122;-78
2022/10/01 07:59:14;;;;;;;1.90;1.57;;;12.70;99.90;;;;;;7393388;19;20131;-76
2022/10/01 08:01:40;;;;;;;5.13;1.50;;;12.70;99.90;;;;;;7393041;19;20150;-79
2022/10/01 08:06:52;;;;;;;3.27;1.30;;;12.60;99.90;;;;;;7388108;19;20262;-79
2022/10/01 08:09:20;;;;;;;4.30;1.20;;;12.60;99.90;;;;;;7390831;19;20547;-76
2022/10/01 08:11:47;;;;;;;3.07;1.10;;;12.60;99.90;;;;;;7388448;19;20154;-77
2022/10/01 08:14:17;;;;;;;4.93;1.30;;;12.70;99.90;;;;;;7389058;19;20262;-80
2022/10/01 08:16:43;;;;;;;3.90;1.33;;;12.50;99.90;;;;;;7390617;19;21178;-78
2022/10/01 08:19:08;;;;;;;1.97;1.27;;;12.70;99.90;;;;;;7388660;19;20138;-80
2022/10/01 08:21:34;;;;;;;7.27;4.47;;;12.70;99.90;;;;;;7387449;19;20146;-79
2022/10/01 08:24:04;;;;;;;3.23;1.30;;;12.50;99.90;;;;;;7388991;19;20138;-79
2022/10/01 08:26:30;;;;;;;4.30;1.20;;;12.80;99.90;;;;;;7389453;19;20134;-78
2022/10/01 08:28:56;;;;;;;1.73;1.17;;;12.50;99.90;;;;;;7390689;19;20154;-77
2022/10/01 08:31:22;;;;;;;3.00;1.93;;;12.60;99.90;;;;;;7389760;19;20139;-77
2022/10/01 08:33:49;;;;;;;1.03;0.97;;;12.60;99.90;;;;;;7389372;19;20146;-77
2022/10/01 08:36:15;;;;;;;2.70;1.17;;;12.60;99.90;;;;;;7390046;19;20539;-76
2022/10/01 08:38:45;;;;;;;2.90;1.10;;;12.80;99.90;;;;;;7387678;19;20134;-75
2022/10/01 08:41:41;;;;;;;2.77;1.20;;;12.80;99.90;;;;;;7388656;19;20146;-77
2022/10/01 08:44:15;;;;;;;3.87;1.60;;;12.70;99.90;;;;;;7377970;19;20177;-78
2022/10/01 08:46:41;;;;;;;2.57;1.53;;;12.60;99.90;;;;;;7385475;19;20158;-77
2022/10/01 08:49:36;;;;;;;3.13;1.10;;;12.70;99.90;;;;;;7383101;19;20154;-77
2022/10/01 08:52:06;;;;;;;1.27;1.00;;;12.70;99.90;;;;;;7377891;19;20134;-78
2022/10/01 08:54:46;;;;;;;2.17;1.10;;;12.70;99.90;;;;;;7388962;19;20191;-78
2022/10/01 08:57:16;;;;;;;2.33;1.50;;;12.60;99.90;;;;;;7388575;19;20238;-78
2022/10/01 08:59:44;;;;;;;2.07;0.97;;;12.70;99.90;;;;;;7387274;19;20139;-77
2022/10/01 09:02:34;;;;;;;1.23;1.00;;;12.80;99.90;;;;;;7388699;19;20123;-77
2022/10/01 09:05:23;;;;;;;1.93;1.40;;;12.80;99.90;;;;;;7389289;19;20147;-77
2022/10/01 09:07:58;;;;;;;1.80;1.07;;;12.70;99.90;;;;;;7386774;19;20142;-78
2022/10/01 09:10:55;;;;;;;2.80;1.17;;;12.90;99.90;;;;;;7387565;19;20152;-77
2022/10/01 09:13:47;;;;;;;1.77;1.10;;;12.80;99.90;;;;;;7386793;19;20592;-77
2022/10/01 09:16:37;;;;;;;3.93;1.30;;;12.80;99.90;;;;;;7390738;19;20214;-76
2022/10/01 09:19:28;;;;;;;2.53;1.20;;;12.70;99.90;;;;;;7395184;19;20492;-77
2022/10/01 09:22:02;;;;;;;1.47;1.17;;;12.80;99.90;;;;;;7395045;19;20134;-77
2022/10/01 09:24:39;;;;;;;0.87;0.87;;;12.90;99.90;;;;;;7394890;19;20149;-77
2022/10/01 09:27:18;;;;;;;1.03;0.93;;;12.80;99.90;;;;;;7394202;19;20138;-76
2022/10/01 09:30:02;;;;;;;2.20;1.23;;;12.70;99.90;;;;;;7395124;19;20131;-78
2022/10/01 09:32:57;;;;;;;3.83;1.13;;;12.70;99.90;;;;;;7395501;19;20134;-78
2022/10/01 09:35:40;;;;;;;1.43;0.90;;;12.90;99.90;;;;;;7392561;19;20166;-77
2022/10/01 09:38:38;;;;;;;2.00;0.90;;;12.80;99.90;;;;;;7395873;19;20134;-77
2022/10/01 09:41:04;;;;;;;3.40;1.40;;;12.80;99.90;;;;;;7396770;19;20142;-77
2022/10/01 09:43:40;;;;;;;1.10;1.00;;;12.80;99.90;;;;;;7397307;19;20600;-76
2022/10/01 09:46:12;;;;;;;1.33;1.13;;;12.90;99.90;;;;;;7394076;19;20155;-76
2022/10/01 09:48:48;;;;;;;1.20;0.90;;;12.80;99.90;;;;;;7395279;19;20150;-77
2022/10/01 09:51:33;;;;;;;1.97;1.03;;;13.00;99.90;;;;;;7396728;19;20127;-77
2022/10/01 09:54:38;;;;;;;1.17;1.08;;;12.80;99.90;;;;;;7391831;19;20136;-76
2022/10/01 09:57:38;;;;;;;1.33;0.90;;;12.90;99.90;;;;;;7389529;19;20170;-76
2022/10/01 10:00:20;;;;;;;1.97;1.00;;;12.80;99.90;;;;;;7387841;19;20782;-77
2022/10/01 10:02:48;;;;;;;1.63;0.90;;;13.00;99.90;;;;;;7392648;19;20218;-77
2022/10/01 10:05:21;;;;;;;2.30;1.30;;;13.10;99.90;;;;;;7392341;19;20219;-78
2022/10/01 10:08:01;;;;;;;3.53;2.07;;;13.20;99.90;;;;;;7392862;19;20468;-77
2022/10/01 10:10:38;;;;;;;1.13;0.80;;;13.10;99.90;;;;;;7392942;19;20141;-78
2022/10/01 10:13:16;;;;;;;2.70;1.00;;;13.20;99.90;;;;;;7392391;19;20148;-80
2022/10/01 10:15:51;;;;;;;1.73;0.90;;;13.20;99.90;;;;;;7392747;19;20318;-77
2022/10/01 10:18:25;;;;;;;5.70;2.30;;;13.20;99.90;;;;;;7392414;19;20130;-78
2022/10/01 10:20:53;;;;;;;1.13;1.00;;;13.30;99.90;;;;;;7395175;19;20614;-79
2022/10/01 10:23:21;;;;;;;2.80;0.80;;;13.20;99.90;;;;;;7392837;19;20171;-78
2022/10/01 10:26:02;;;;;;;1.00;0.80;;;13.20;99.90;;;;;;7390087;19;20192;-78
2022/10/01 10:28:38;;;;;;;1.07;0.93;;;13.20;99.90;;;;;;7392770;19;20134;-78
2022/10/01 10:31:18;;;;;;;2.63;0.70;;;13.10;99.90;;;;;;7392325;19;20158;-77
2022/10/01 10:33:56;;;;;;;1.03;0.90;;;13.30;99.90;;;;;;7394721;19;20146;-77
2022/10/01 10:36:28;;;;;;;1.03;0.80;;;13.20;99.90;;;;;;7393526;19;20559;-78
2022/10/01 10:38:55;;;;;;;1.00;0.90;;;13.10;99.90;;;;;;7394119;19;20139;-78
2022/10/01 10:41:25;;;;;;;1.20;1.10;;;13.10;99.90;;;;;;7392392;19;20135;-78
2022/10/01 10:44:02;;;;;;;1.73;1.40;;;13.00;99.90;;;;;;7391923;19;20158;-79
2022/10/01 10:46:34;;;;;;;1.85;1.20;;;13.30;99.90;;;;;;7391348;19;20157;-77
2022/10/01 10:49:19;;;;;;;1.58;1.48;;;13.30;99.90;;;;;;7391269;19;20147;-76
2022/10/01 10:51:52;;;;;;;0.75;0.73;;;13.30;99.90;;;;;;7394095;19;20202;-77
2022/10/01 10:54:28;;;;;;;2.00;1.42;;;13.20;99.90;;;;;;7394013;19;20139;-77
2022/10/01 10:57:22;;;;;;;3.80;1.27;;;13.30;99.90;;;;;;7390726;19;20146;-77
2022/10/01 11:00:03;;;;;;;3.90;0.70;;;13.30;99.90;;;;;;7389079;19;20134;-77
2022/10/01 11:02:32;;;;;;;2.30;1.77;;;13.40;99.90;;;;;;7392580;19;20134;-78
2022/10/01 11:05:20;;;;;;;3.28;2.03;;;13.50;99.90;;;;;;7392952;19;20529;-78
2022/10/01 11:07:49;;;;;;;2.20;1.47;;;13.50;99.90;;;;;;7392588;19;20154;-78
2022/10/01 11:10:30;;;;;;;4.82;3.20;;;13.60;99.90;;;;;;7391910;19;20499;-78
2022/10/01 11:13:10;;;;;;;1.67;1.40;;;13.70;99.90;;;;;;7392354;19;20142;-77
2022/10/01 11:16:07;;;;;;;0.87;0.80;;;13.90;99.90;;;;;;7392792;19;20613;-78
2022/10/01 11:18:50;;;;;;;2.15;1.30;;;13.90;99.90;;;;;;7391863;19;20503;-78
2022/10/01 11:21:19;;;;;;;1.60;0.90;;;13.90;99.90;;;;;;7393035;19;20142;-78
2022/10/01 11:24:00;;;;;;;1.10;0.80;;;14.00;99.90;;;;;;7393755;19;20151;-79
2022/10/01 11:26:45;;;;;;;2.08;0.95;;;14.00;99.90;;;;;;7392503;19;20130;-76
2022/10/01 11:29:19;;;;;;;1.63;0.80;;;14.10;99.90;;;;;;7392073;19;20135;-78
2022/10/01 11:31:57;;;;;;;0.93;0.70;;;14.00;99.90;;;;;;7392550;19;20151;-78
2022/10/01 11:34:41;;;;;;;0.93;0.80;;;13.90;99.90;;;;;;7392479;19;20126;-77
2022/10/01 11:37:30;;;;;;;0.57;0.50;;;13.90;99.90;;;;;;7391391;19;20215;-78
2022/10/01 11:40:02;;;;;;;1.53;1.00;;;13.90;99.90;;;;;;7387746;19;20154;-78
2022/10/01 11:42:35;;;;;;;0.40;0.40;;;13.90;99.90;;;;;;7392398;19;20154;-76
2022/10/01 11:45:25;;;;;;;0.60;0.60;;;13.90;99.90;;;;;;7389741;19;20141;-77
2022/10/01 11:48:11;;;;;;;0.38;0.38;;;13.90;99.90;;;;;;7391907;19;20131;-77
2022/10/01 11:50:47;;;;;;;1.77;0.43;;;13.80;99.90;;;;;;7391418;19;20135;-76
2022/10/01 11:53:23;;;;;;;0.77;0.60;;;14.00;99.90;;;;;;7391447;19;20130;-78
2022/10/01 11:58:53;;;;;;;0.65;0.50;;;13.90;99.90;;;;;;7384546;19;20218;-78
2022/10/01 12:01:41;;;;;;;1.08;0.70;;;13.90;99.90;;;;;;7391871;19;20134;-78
2022/10/01 12:04:36;;;;;;;0.60;0.60;;;14.00;99.90;;;;;;7390252;19;20197;-77
2022/10/01 12:07:13;;;;;;;1.40;0.70;;;14.00;99.90;;;;;;7391228;19;20135;-78
2022/10/01 12:10:06;;;;;;;0.57;0.40;;;13.90;99.90;;;;;;7390400;19;20130;-77
2022/10/01 12:12:45;;;;;;;0.98;0.40;;;13.90;99.90;;;;;;7391752;19;20472;-77
2022/10/01 12:15:17;;;;;;;1.23;0.60;;;14.00;99.90;;;;;;7391954;19;20855;-76
2022/10/01 12:17:50;;;;;;;1.10;0.63;;;14.00;99.90;;;;;;7388052;19;20138;-77
2022/10/01 12:20:32;;;;;;;0.97;0.80;;;14.10;99.90;;;;;;7387809;19;20615;-77
2022/10/01 12:23:02;;;;;;;2.80;1.45;;;14.20;99.90;;;;;;7391034;19;20131;-76
2022/10/01 12:25:46;;;;;;;0.70;0.70;;;14.00;99.90;;;;;;7387329;19;20154;-76
2022/10/01 12:28:18;;;;;;;0.80;0.75;;;14.00;99.90;;;;;;7387554;19;20155;-76
2022/10/01 12:30:58;;;;;;;0.75;0.63;;;13.90;99.90;;;;;;7389730;19;20130;-75
2022/10/01 12:34:17;;;;;;;0.85;0.63;;;14.00;99.90;;;;;;7386190;19;20138;-76
2022/10/01 12:37:09;;;;;;;1.10;0.90;;;14.20;99.90;;;;;;7384192;19;20135;-76
2022/10/01 12:40:12;;;;;;;1.48;0.98;;;14.10;99.90;;;;;;7390110;19;20155;-76
2022/10/01 12:43:07;;;;;;;1.77;0.90;;;14.30;99.90;;;;;;7387069;19;20472;-76
2022/10/01 12:46:03;;;;;;;1.00;0.80;;;14.30;99.90;;;;;;7384417;19;20392;-75
2022/10/01 12:48:44;;;;;;;0.95;0.68;;;14.30;99.90;;;;;;7386311;19;20171;-76
2022/10/01 12:51:39;;;;;;;1.02;0.80;;;14.30;99.90;;;;;;7396551;19;20222;-77
2022/10/01 12:54:23;;;;;;;0.80;0.80;;;14.30;99.90;;;;;;7394694;19;20135;-77
2022/10/01 12:57:13;;;;;;;1.35;0.60;;;14.30;99.90;;;;;;7396766;19;20134;-77
2022/10/01 12:59:52;;;;;;;0.82;0.75;;;14.30;99.90;;;;;;7394339;19;20520;-76
2022/10/01 13:02:46;;;;;;;1.10;0.70;;;14.40;99.90;;;;;;7399607;19;20846;-77
2022/10/01 13:05:35;;;;;;;0.55;0.40;;;14.40;99.90;;;;;;7399011;19;20547;-77
2022/10/01 13:08:17;;;;;;;1.38;0.80;;;14.40;99.90;;;;;;7396396;19;20487;-76
2022/10/01 13:11:04;;;;;;;1.55;0.70;;;14.40;99.90;;;;;;7398402;19;20604;-77
2022/10/01 13:13:32;;;;;;;0.80;0.70;;;14.40;99.90;;;;;;7397288;19;20146;-77
2022/10/01 13:16:08;;;;;;;0.70;0.50;;;14.30;99.90;;;;;;7395535;19;20189;-77
2022/10/01 13:18:39;;;;;;;0.63;0.50;;;14.30;99.90;;;;;;7393891;19;20126;-75
2022/10/01 13:21:17;;;;;;;0.85;0.50;;;14.40;99.90;;;;;;7399564;19;20454;-75